sensor_id;sensor_type;location;lat;lon;timestamp;pressure;altitude;pressure_sealevel;temperature;humidity
59073;BME280;44859;51.934;15.554;2023-01-28T00:01:58;100670.62;;;-2.77;100.00
59073;BME280;44859;51.934;15.554;2023-01-28T00:04:27;100676.48;;;-2.76;100.00
59073;BME280;44859;51.934;15.554;2023-01-28T00:06:59;100677.68;;;-2.76;100.00
59073;BME280;44859;51.934;15.554;2023-01-28T00:09:30;100678.39;;;-2.75;100.00
59073;BME280;44859;51.934;15.554;2023-01-28T00:12:01;100676.81;;;-2.76;100.00
59073;BME280;44859;51.934;15.554;2023-01-28T00:14:30;100678.20;;;-2.76;100.00
59073;BME280;44859;51.934;15.554;2023-01-28T00:17:08;100673.67;;;-2.79;100.00
59073;BME280;44859;51.934;15.554;2023-01-28T00:19:57;100673.83;;;-2.80;100.00
59073;BME280;44859;51.934;15.554;2023-01-28T00:22:37;100673.70;;;-2.78;100.00
59073;BME280;44859;51.934;15.554;2023-01-28T00:25:37;100675.07;;;-2.78;100.00
59073;BME280;44859;51.934;15.554;2023-01-28T00:28:18;100671.50;;;-2.76;100.00
59073;BME280;44859;51.934;15.554;2023-01-28T00:30:50;100672.20;;;-2.75;100.00
59073;BME280;44859;51.934;15.554;2023-01-28T00:33:30;100676.77;;;-2.79;100.00
59073;BME280;44859;51.934;15.554;2023-01-28T00:36:01;100679.48;;;-2.81;100.00
59073;BME280;44859;51.934;15.554;2023-01-28T00:38:35;100682.23;;;-2.81;100.00
59073;BME280;44859;51.934;15.554;2023-01-28T00:41:15;100686.14;;;-2.83;100.00
59073;BME280;44859;51.934;15.554;2023-01-28T00:44:00;100682.70;;;-2.83;100.00
59073;BME280;44859;51.934;15.554;2023-01-28T00:46:52;100683.25;;;-2.82;100.00
59073;BME280;44859;51.934;15.554;2023-01-28T00:49:30;100680.16;;;-2.81;100.00
59073;BME280;44859;51.934;15.554;2023-01-28T00:55:24;100683.05;;;-2.83;100.00
59073;BME280;44859;51.934;15.554;2023-01-28T00:58:15;100686.92;;;-2.78;100.00
59073;BME280;44859;51.934;15.554;2023-01-28T01:01:12;100694.17;;;-2.77;100.00
59073;BME280;44859;51.934;15.554;2023-01-28T01:03:51;100690.52;;;-2.79;100.00
59073;BME280;44859;51.934;15.554;2023-01-28T01:06:45;100690.64;;;-2.81;100.00
59073;BME280;44859;51.934;15.554;2023-01-28T01:09:30;100688.46;;;-2.87;100.00
59073;BME280;44859;51.934;15.554;2023-01-28T01:12:10;100687.23;;;-2.88;100.00
59073;BME280;44859;51.934;15.554;2023-01-28T01:14:44;100691.23;;;-2.86;100.00
59073;BME280;44859;51.934;15.554;2023-01-28T01:17:51;100692.18;;;-2.81;100.00
59073;BME280;44859;51.934;15.554;2023-01-28T01:20:48;100693.45;;;-2.78;100.00
59073;BME280;44859;51.934;15.554;2023-01-28T01:23:20;100695.34;;;-2.78;100.00
59073;BME280;44859;51.934;15.554;2023-01-28T01:26:39;100699.58;;;-2.81;100.00
59073;BME280;44859;51.934;15.554;2023-01-28T01:29:06;100699.05;;;-2.82;100.00
59073;BME280;44859;51.934;15.554;2023-01-28T01:31:42;100692.81;;;-2.84;100.00
59073;BME280;44859;51.934;15.554;2023-01-28T01:34:28;100687.75;;;-2.89;100.00
59073;BME280;44859;51.934;15.554;2023-01-28T01:37:28;100693.37;;;-2.91;100.00
59073;BME280;44859;51.934;15.554;2023-01-28T01:40:05;100694.01;;;-2.94;100.00
59073;BME280;44859;51.934;15.554;2023-01-28T01:42:54;100696.91;;;-2.95;100.00
59073;BME280;44859;51.934;15.554;2023-01-28T01:45:22;100697.23;;;-2.95;100.00
59073;BME280;44859;51.934;15.554;2023-01-28T01:48:14;100691.69;;;-2.97;100.00
59073;BME280;44859;51.934;15.554;2023-01-28T01:51:11;100695.29;;;-2.98;100.00
59073;BME280;44859;51.934;15.554;2023-01-28T01:53:43;100693.69;;;-3.01;100.00
59073;BME280;44859;51.934;15.554;2023-01-28T01:56:20;100692.44;;;-3.02;100.00
59073;BME280;44859;51.934;15.554;2023-01-28T01:58:52;100691.55;;;-3.04;100.00
59073;BME280;44859;51.934;15.554;2023-01-28T02:01:27;100688.26;;;-3.05;100.00
59073;BME280;44859;51.934;15.554;2023-01-28T02:04:16;100686.38;;;-3.05;100.00
59073;BME280;44859;51.934;15.554;2023-01-28T02:06:47;100683.37;;;-3.01;100.00
59073;BME280;44859;51.934;15.554;2023-01-28T02:09:25;100677.11;;;-3.04;100.00
59073;BME280;44859;51.934;15.554;2023-01-28T02:11:59;100678.15;;;-3.04;100.00
59073;BME280;44859;51.934;15.554;2023-01-28T02:14:45;100680.04;;;-3.04;100.00
59073;BME280;44859;51.934;15.554;2023-01-28T02:17:22;100679.38;;;-3.03;100.00
59073;BME280;44859;51.934;15.554;2023-01-28T02:20:22;100680.46;;;-3.00;100.00
59073;BME280;44859;51.934;15.554;2023-01-28T02:29:41;100679.27;;;-3.00;100.00
59073;BME280;44859;51.934;15.554;2023-01-28T02:32:36;100679.27;;;-3.00;100.00
59073;BME280;44859;51.934;15.554;2023-01-28T02:35:39;100679.48;;;-2.97;100.00
59073;BME280;44859;51.934;15.554;2023-01-28T02:38:14;100679.14;;;-2.97;100.00
59073;BME280;44859;51.934;15.554;2023-01-28T02:40:49;100677.54;;;-3.00;100.00
59073;BME280;44859;51.934;15.554;2023-01-28T02:43:42;100681.04;;;-3.05;100.00
59073;BME280;44859;51.934;15.554;2023-01-28T02:49:18;100685.10;;;-3.09;100.00
59073;BME280;44859;51.934;15.554;2023-01-28T03:04:08;100688.45;;;-3.04;100.00
59073;BME280;44859;51.934;15.554;2023-01-28T03:06:48;100692.95;;;-3.03;100.00
59073;BME280;44859;51.934;15.554;2023-01-28T03:09:19;100699.08;;;-3.06;100.00
59073;BME280;44859;51.934;15.554;2023-01-28T03:12:17;100701.77;;;-3.08;100.00
59073;BME280;44859;51.934;15.554;2023-01-28T03:15:16;100701.02;;;-3.11;100.00
59073;BME280;44859;51.934;15.554;2023-01-28T03:18:19;100702.36;;;-3.13;100.00
59073;BME280;44859;51.934;15.554;2023-01-28T03:21:14;100702.61;;;-3.17;100.00
59073;BME280;44859;51.934;15.554;2023-01-28T03:24:31;100705.48;;;-3.20;100.00
59073;BME280;44859;51.934;15.554;2023-01-28T03:27:30;100714.76;;;-3.20;100.00
59073;BME280;44859;51.934;15.554;2023-01-28T03:30:28;100714.55;;;-3.22;100.00
59073;BME280;44859;51.934;15.554;2023-01-28T03:33:28;100711.33;;;-3.20;100.00
59073;BME280;44859;51.934;15.554;2023-01-28T03:36:44;100708.48;;;-3.17;100.00
59073;BME280;44859;51.934;15.554;2023-01-28T03:39:46;100710.84;;;-3.18;100.00
59073;BME280;44859;51.934;15.554;2023-01-28T03:42:22;100714.21;;;-3.21;100.00
59073;BME280;44859;51.934;15.554;2023-01-28T03:45:17;100714.98;;;-3.26;100.00
59073;BME280;44859;51.934;15.554;2023-01-28T03:47:45;100719.55;;;-3.29;100.00
59073;BME280;44859;51.934;15.554;2023-01-28T03:50:16;100722.10;;;-3.30;100.00
59073;BME280;44859;51.934;15.554;2023-01-28T03:52:53;100722.05;;;-3.32;100.00
59073;BME280;44859;51.934;15.554;2023-01-28T03:55:24;100725.95;;;-3.35;100.00
59073;BME280;44859;51.934;15.554;2023-01-28T03:58:02;100735.73;;;-3.35;100.00
59073;BME280;44859;51.934;15.554;2023-01-28T04:00:48;100734.66;;;-3.36;100.00
59073;BME280;44859;51.934;15.554;2023-01-28T04:04:33;100732.20;;;-3.31;100.00
59073;BME280;44859;51.934;15.554;2023-01-28T04:07:04;100734.50;;;-3.28;100.00
59073;BME280;44859;51.934;15.554;2023-01-28T04:09:49;100739.71;;;-3.26;100.00
59073;BME280;44859;51.934;15.554;2023-01-28T04:12:21;100739.52;;;-3.27;100.00
59073;BME280;44859;51.934;15.554;2023-01-28T04:14:52;100739.39;;;-3.25;100.00
59073;BME280;44859;51.934;15.554;2023-01-28T04:17:21;100740.77;;;-3.24;100.00
59073;BME280;44859;51.934;15.554;2023-01-28T04:19:53;100741.77;;;-3.26;100.00
59073;BME280;44859;51.934;15.554;2023-01-28T04:22:45;100749.36;;;-3.25;100.00
59073;BME280;44859;51.934;15.554;2023-01-28T04:25:14;100750.88;;;-3.26;100.00
59073;BME280;44859;51.934;15.554;2023-01-28T04:28:01;100748.01;;;-3.31;100.00
59073;BME280;44859;51.934;15.554;2023-01-28T04:30:36;100746.79;;;-3.32;100.00
59073;BME280;44859;51.934;15.554;2023-01-28T04:33:25;100752.22;;;-3.34;100.00
59073;BME280;44859;51.934;15.554;2023-01-28T04:35:56;100753.25;;;-3.35;100.00
59073;BME280;44859;51.934;15.554;2023-01-28T04:38:25;100753.70;;;-3.38;100.00
59073;BME280;44859;51.934;15.554;2023-01-28T04:40:54;100757.71;;;-3.35;100.00
59073;BME280;44859;51.934;15.554;2023-01-28T04:46:38;100755.64;;;-3.29;100.00
59073;BME280;44859;51.934;15.554;2023-01-28T04:52:34;100761.36;;;-3.33;100.00
59073;BME280;44859;51.934;15.554;2023-01-28T04:55:33;100764.73;;;-3.36;100.00
59073;BME280;44859;51.934;15.554;2023-01-28T04:58:04;100762.49;;;-3.36;100.00
59073;BME280;44859;51.934;15.554;2023-01-28T05:00:43;100761.52;;;-3.34;100.00
59073;BME280;44859;51.934;15.554;2023-01-28T05:03:24;100760.86;;;-3.33;100.00
59073;BME280;44859;51.934;15.554;2023-01-28T05:06:02;100762.79;;;-3.31;100.00
59073;BME280;44859;51.934;15.554;2023-01-28T05:09:00;100766.13;;;-3.28;100.00
59073;BME280;44859;51.934;15.554;2023-01-28T05:11:38;100761.14;;;-3.29;100.00
59073;BME280;44859;51.934;15.554;2023-01-28T05:14:19;100758.70;;;-3.30;99.79
59073;BME280;44859;51.934;15.554;2023-01-28T05:17:23;100758.79;;;-3.33;99.20
59073;BME280;44859;51.934;15.554;2023-01-28T05:20:07;100766.70;;;-3.32;99.29
59073;BME280;44859;51.934;15.554;2023-01-28T05:22:53;100773.55;;;-3.33;98.39
59073;BME280;44859;51.934;15.554;2023-01-28T05:25:32;100779.38;;;-3.35;98.40
59073;BME280;44859;51.934;15.554;2023-01-28T05:28:09;100783.78;;;-3.36;98.24
59073;BME280;44859;51.934;15.554;2023-01-28T05:31:06;100781.66;;;-3.39;98.06
59073;BME280;44859;51.934;15.554;2023-01-28T05:33:48;100780.48;;;-3.38;97.86
59073;BME280;44859;51.934;15.554;2023-01-28T05:36:20;100782.54;;;-3.39;97.71
59073;BME280;44859;51.934;15.554;2023-01-28T05:38:49;100786.09;;;-3.41;97.81
59073;BME280;44859;51.934;15.554;2023-01-28T05:41:29;100787.31;;;-3.39;97.55
59073;BME280;44859;51.934;15.554;2023-01-28T05:44:03;100786.91;;;-3.42;97.08
59073;BME280;44859;51.934;15.554;2023-01-28T05:46:32;100790.87;;;-3.41;97.34
59073;BME280;44859;51.934;15.554;2023-01-28T05:49:00;100797.39;;;-3.42;97.50
59073;BME280;44859;51.934;15.554;2023-01-28T05:51:31;100799.73;;;-3.45;97.13
59073;BME280;44859;51.934;15.554;2023-01-28T05:54:13;100795.91;;;-3.47;97.23
59073;BME280;44859;51.934;15.554;2023-01-28T05:56:45;100796.25;;;-3.47;97.17
59073;BME280;44859;51.934;15.554;2023-01-28T05:59:17;100798.02;;;-3.45;97.42
59073;BME280;44859;51.934;15.554;2023-01-28T06:01:50;100803.00;;;-3.45;96.99
59073;BME280;44859;51.934;15.554;2023-01-28T06:04:22;100806.92;;;-3.46;97.50
59073;BME280;44859;51.934;15.554;2023-01-28T06:06:53;100808.61;;;-3.47;97.50
59073;BME280;44859;51.934;15.554;2023-01-28T06:09:27;100806.35;;;-3.48;97.37
59073;BME280;44859;51.934;15.554;2023-01-28T06:12:02;100806.52;;;-3.49;97.30
59073;BME280;44859;51.934;15.554;2023-01-28T06:14:39;100811.52;;;-3.47;97.67
59073;BME280;44859;51.934;15.554;2023-01-28T06:17:21;100816.19;;;-3.46;97.73
59073;BME280;44859;51.934;15.554;2023-01-28T06:19:55;100823.05;;;-3.47;97.54
59073;BME280;44859;51.934;15.554;2023-01-28T06:22:36;100817.91;;;-3.47;97.48
59073;BME280;44859;51.934;15.554;2023-01-28T06:25:08;100821.91;;;-3.44;97.83
59073;BME280;44859;51.934;15.554;2023-01-28T06:27:42;100825.08;;;-3.41;97.72
59073;BME280;44859;51.934;15.554;2023-01-28T06:30:19;100825.89;;;-3.43;97.82
59073;BME280;44859;51.934;15.554;2023-01-28T06:32:54;100831.86;;;-3.45;97.86
59073;BME280;44859;51.934;15.554;2023-01-28T06:35:23;100834.04;;;-3.46;97.59
59073;BME280;44859;51.934;15.554;2023-01-28T06:37:55;100836.11;;;-3.46;97.60
59073;BME280;44859;51.934;15.554;2023-01-28T06:40:27;100839.41;;;-3.45;97.41
59073;BME280;44859;51.934;15.554;2023-01-28T06:42:56;100839.67;;;-3.48;97.21
59073;BME280;44859;51.934;15.554;2023-01-28T06:45:31;100839.63;;;-3.49;97.44
59073;BME280;44859;51.934;15.554;2023-01-28T06:48:26;100841.61;;;-3.53;97.00
59073;BME280;44859;51.934;15.554;2023-01-28T06:51:05;100842.20;;;-3.50;96.98
59073;BME280;44859;51.934;15.554;2023-01-28T06:53:40;100841.38;;;-3.48;97.12
59073;BME280;44859;51.934;15.554;2023-01-28T06:56:14;100843.77;;;-3.49;96.91
59073;BME280;44859;51.934;15.554;2023-01-28T06:58:46;100840.21;;;-3.54;97.13
59073;BME280;44859;51.934;15.554;2023-01-28T07:02:07;100841.17;;;-3.56;96.91
59073;BME280;44859;51.934;15.554;2023-01-28T07:04:40;100847.27;;;-3.60;97.12
59073;BME280;44859;51.934;15.554;2023-01-28T07:07:12;100844.29;;;-3.62;97.09
59073;BME280;44859;51.934;15.554;2023-01-28T07:10:32;100842.08;;;-3.61;97.02
59073;BME280;44859;51.934;15.554;2023-01-28T07:13:25;100847.58;;;-3.54;96.85
59073;BME280;44859;51.934;15.554;2023-01-28T07:16:13;100849.06;;;-3.51;97.15
59073;BME280;44859;51.934;15.554;2023-01-28T07:18:42;100848.14;;;-3.46;96.78
59073;BME280;44859;51.934;15.554;2023-01-28T07:21:16;100850.86;;;-3.46;96.78
59073;BME280;44859;51.934;15.554;2023-01-28T07:23:45;100847.61;;;-3.46;96.99
59073;BME280;44859;51.934;15.554;2023-01-28T07:26:13;100848.99;;;-3.46;96.81
59073;BME280;44859;51.934;15.554;2023-01-28T07:28:42;100845.11;;;-3.43;96.87
59073;BME280;44859;51.934;15.554;2023-01-28T07:31:14;100846.39;;;-3.40;97.00
59073;BME280;44859;51.934;15.554;2023-01-28T07:33:58;100850.38;;;-3.39;96.85
59073;BME280;44859;51.934;15.554;2023-01-28T07:36:38;100848.46;;;-3.40;96.69
59073;BME280;44859;51.934;15.554;2023-01-28T07:39:35;100844.16;;;-3.33;96.47
59073;BME280;44859;51.934;15.554;2023-01-28T07:42:04;100845.77;;;-3.31;96.74
59073;BME280;44859;51.934;15.554;2023-01-28T07:44:44;100849.80;;;-3.28;96.59
59073;BME280;44859;51.934;15.554;2023-01-28T07:47:17;100851.58;;;-3.25;96.15
59073;BME280;44859;51.934;15.554;2023-01-28T07:50:08;100848.75;;;-3.28;95.90
59073;BME280;44859;51.934;15.554;2023-01-28T07:52:37;100845.59;;;-3.31;95.91
59073;BME280;44859;51.934;15.554;2023-01-28T07:55:11;100847.37;;;-3.29;96.02
59073;BME280;44859;51.934;15.554;2023-01-28T07:58:08;100842.54;;;-3.30;95.85
59073;BME280;44859;51.934;15.554;2023-01-28T08:00:40;100840.91;;;-3.26;95.67
59073;BME280;44859;51.934;15.554;2023-01-28T08:03:12;100844.30;;;-3.20;95.38
59073;BME280;44859;51.934;15.554;2023-01-28T08:05:48;100844.38;;;-3.17;95.46
59073;BME280;44859;51.934;15.554;2023-01-28T08:08:20;100841.83;;;-3.16;95.52
59073;BME280;44859;51.934;15.554;2023-01-28T08:10:48;100846.09;;;-3.18;95.32
59073;BME280;44859;51.934;15.554;2023-01-28T08:13:20;100847.63;;;-3.18;94.75
59073;BME280;44859;51.934;15.554;2023-01-28T08:15:55;100846.96;;;-3.17;94.28
59073;BME280;44859;51.934;15.554;2023-01-28T08:18:27;100843.52;;;-3.17;93.93
59073;BME280;44859;51.934;15.554;2023-01-28T08:20:57;100847.81;;;-3.17;93.98
59073;BME280;44859;51.934;15.554;2023-01-28T08:23:26;100852.11;;;-3.18;93.59
59073;BME280;44859;51.934;15.554;2023-01-28T08:25:58;100849.69;;;-3.18;93.17
59073;BME280;44859;51.934;15.554;2023-01-28T08:28:26;100851.45;;;-3.16;92.64
59073;BME280;44859;51.934;15.554;2023-01-28T08:30:58;100854.36;;;-3.16;92.71
59073;BME280;44859;51.934;15.554;2023-01-28T08:33:28;100855.05;;;-3.15;93.01
59073;BME280;44859;51.934;15.554;2023-01-28T08:35:56;100852.84;;;-3.15;93.15
59073;BME280;44859;51.934;15.554;2023-01-28T08:38:25;100854.76;;;-3.14;93.09
59073;BME280;44859;51.934;15.554;2023-01-28T08:40:56;100856.55;;;-3.11;92.99
59073;BME280;44859;51.934;15.554;2023-01-28T08:43:27;100853.27;;;-3.12;92.44
59073;BME280;44859;51.934;15.554;2023-01-28T08:45:59;100855.05;;;-3.09;92.49
59073;BME280;44859;51.934;15.554;2023-01-28T08:48:34;100856.34;;;-3.05;92.38
59073;BME280;44859;51.934;15.554;2023-01-28T08:51:03;100859.62;;;-3.05;92.39
59073;BME280;44859;51.934;15.554;2023-01-28T08:53:32;100859.66;;;-3.02;92.44
59073;BME280;44859;51.934;15.554;2023-01-28T08:56:01;100867.16;;;-3.06;92.14
59073;BME280;44859;51.934;15.554;2023-01-28T08:58:30;100867.50;;;-3.06;92.10
59073;BME280;44859;51.934;15.554;2023-01-28T09:01:04;100865.58;;;-3.07;91.73
59073;BME280;44859;51.934;15.554;2023-01-28T09:03:35;100868.38;;;-3.05;91.59
59073;BME280;44859;51.934;15.554;2023-01-28T09:06:07;100874.34;;;-3.00;91.50
59073;BME280;44859;51.934;15.554;2023-01-28T09:08:35;100871.51;;;-2.96;91.33
59073;BME280;44859;51.934;15.554;2023-01-28T09:11:04;100874.39;;;-2.90;91.22
59073;BME280;44859;51.934;15.554;2023-01-28T09:13:33;100876.44;;;-2.84;91.16
59073;BME280;44859;51.934;15.554;2023-01-28T09:16:04;100876.87;;;-2.88;90.58
59073;BME280;44859;51.934;15.554;2023-01-28T09:18:33;100879.80;;;-2.87;90.82
59073;BME280;44859;51.934;15.554;2023-01-28T09:21:04;100883.05;;;-2.80;90.67
59073;BME280;44859;51.934;15.554;2023-01-28T09:23:39;100879.52;;;-2.76;90.76
59073;BME280;44859;51.934;15.554;2023-01-28T09:26:07;100887.10;;;-2.76;90.71
59073;BME280;44859;51.934;15.554;2023-01-28T09:28:36;100887.83;;;-2.75;90.60
59073;BME280;44859;51.934;15.554;2023-01-28T09:31:11;100884.16;;;-2.70;90.31
59073;BME280;44859;51.934;15.554;2023-01-28T09:33:42;100883.59;;;-2.64;90.75
59073;BME280;44859;51.934;15.554;2023-01-28T09:36:14;100881.44;;;-2.60;90.75
59073;BME280;44859;51.934;15.554;2023-01-28T09:38:42;100881.07;;;-2.53;90.42
59073;BME280;44859;51.934;15.554;2023-01-28T09:41:24;100883.08;;;-2.48;90.77
59073;BME280;44859;51.934;15.554;2023-01-28T09:44:04;100881.53;;;-2.48;90.68
59073;BME280;44859;51.934;15.554;2023-01-28T09:46:36;100884.09;;;-2.48;90.70
59073;BME280;44859;51.934;15.554;2023-01-28T09:49:18;100883.95;;;-2.48;90.50
59073;BME280;44859;51.934;15.554;2023-01-28T09:51:53;100883.83;;;-2.45;90.41
59073;BME280;44859;51.934;15.554;2023-01-28T09:54:32;100876.18;;;-2.40;90.51
59073;BME280;44859;51.934;15.554;2023-01-28T09:57:25;100877.56;;;-2.40;90.18
59073;BME280;44859;51.934;15.554;2023-01-28T10:00:00;100877.22;;;-2.41;89.72
59073;BME280;44859;51.934;15.554;2023-01-28T10:05:34;100876.46;;;-2.36;89.76
59073;BME280;44859;51.934;15.554;2023-01-28T10:16:36;100879.30;;;-2.40;88.35
59073;BME280;44859;51.934;15.554;2023-01-28T10:19:15;100883.52;;;-2.43;88.56
59073;BME280;44859;51.934;15.554;2023-01-28T10:21:51;100883.59;;;-2.41;88.35
59073;BME280;44859;51.934;15.554;2023-01-28T10:24:30;100885.58;;;-2.36;88.80
59073;BME280;44859;51.934;15.554;2023-01-28T10:27:02;100886.44;;;-2.36;88.16
59073;BME280;44859;51.934;15.554;2023-01-28T10:29:37;100889.50;;;-2.37;88.08
59073;BME280;44859;51.934;15.554;2023-01-28T10:32:32;100891.02;;;-2.39;87.99
59073;BME280;44859;51.934;15.554;2023-01-28T10:35:04;100889.83;;;-2.39;87.77
59073;BME280;44859;51.934;15.554;2023-01-28T10:37:34;100891.98;;;-2.34;87.82
59073;BME280;44859;51.934;15.554;2023-01-28T10:40:04;100896.56;;;-2.29;88.06
59073;BME280;44859;51.934;15.554;2023-01-28T10:42:35;100898.67;;;-2.27;87.86
59073;BME280;44859;51.934;15.554;2023-01-28T10:45:23;100897.66;;;-2.26;87.84
59073;BME280;44859;51.934;15.554;2023-01-28T10:50:54;100892.91;;;-2.23;87.74
59073;BME280;44859;51.934;15.554;2023-01-28T10:53:40;100894.67;;;-2.22;87.64
59073;BME280;44859;51.934;15.554;2023-01-28T10:56:14;100891.98;;;-2.19;87.64
59073;BME280;44859;51.934;15.554;2023-01-28T10:59:02;100890.94;;;-2.19;87.36
59073;BME280;44859;51.934;15.554;2023-01-28T11:01:44;100891.44;;;-2.20;87.39
59073;BME280;44859;51.934;15.554;2023-01-28T11:04:25;100898.04;;;-2.17;87.54
59073;BME280;44859;51.934;15.554;2023-01-28T11:07:04;100896.36;;;-2.15;87.24
59073;BME280;44859;51.934;15.554;2023-01-28T11:09:36;100889.20;;;-2.11;87.31
59073;BME280;44859;51.934;15.554;2023-01-28T11:12:12;100884.46;;;-2.07;87.31
59073;BME280;44859;51.934;15.554;2023-01-28T11:14:52;100885.08;;;-2.01;87.42
59073;BME280;44859;51.934;15.554;2023-01-28T11:17:31;100889.13;;;-1.97;86.79
59073;BME280;44859;51.934;15.554;2023-01-28T11:20:10;100889.30;;;-1.96;86.89
59073;BME280;44859;51.934;15.554;2023-01-28T11:22:42;100883.95;;;-1.98;86.25
59073;BME280;44859;51.934;15.554;2023-01-28T11:27:59;100887.61;;;-1.95;86.39
59073;BME280;44859;51.934;15.554;2023-01-28T11:30:30;100887.78;;;-1.95;86.17
59073;BME280;44859;51.934;15.554;2023-01-28T11:33:18;100885.40;;;-1.94;86.33
59073;BME280;44859;51.934;15.554;2023-01-28T11:36:06;100880.52;;;-1.89;86.17
59073;BME280;44859;51.934;15.554;2023-01-28T11:38:35;100879.33;;;-1.88;85.45
59073;BME280;44859;51.934;15.554;2023-01-28T11:41:14;100881.08;;;-1.86;85.96
59073;BME280;44859;51.934;15.554;2023-01-28T11:43:43;100880.80;;;-1.84;86.30
59073;BME280;44859;51.934;15.554;2023-01-28T11:46:19;100876.43;;;-1.86;85.71
59073;BME280;44859;51.934;15.554;2023-01-28T11:58:45;100859.90;;;-1.86;85.61
59073;BME280;44859;51.934;15.554;2023-01-28T12:04:20;100858.13;;;-1.79;85.76
59073;BME280;44859;51.934;15.554;2023-01-28T12:09:46;100849.69;;;-1.80;85.60
59073;BME280;44859;51.934;15.554;2023-01-28T12:20:39;100840.80;;;-1.86;85.02
59073;BME280;44859;51.934;15.554;2023-01-28T12:26:02;100839.87;;;-1.80;84.94
59073;BME280;44859;51.934;15.554;2023-01-28T12:31:40;100831.59;;;-1.80;84.70
59073;BME280;44859;51.934;15.554;2023-01-28T12:43:02;100831.27;;;-1.70;84.82
59073;BME280;44859;51.934;15.554;2023-01-28T12:45:39;100823.81;;;-1.73;84.12
59073;BME280;44859;51.934;15.554;2023-01-28T12:48:15;100826.21;;;-1.74;84.17
59073;BME280;44859;51.934;15.554;2023-01-28T12:50:51;100826.27;;;-1.71;84.39
59073;BME280;44859;51.934;15.554;2023-01-28T12:53:41;100832.98;;;-1.70;84.29
59073;BME280;44859;51.934;15.554;2023-01-28T12:56:18;100827.91;;;-1.75;83.98
59073;BME280;44859;51.934;15.554;2023-01-28T12:58:59;100823.16;;;-1.80;83.73
59073;BME280;44859;51.934;15.554;2023-01-28T13:01:37;100828.89;;;-1.87;83.92
59073;BME280;44859;51.934;15.554;2023-01-28T13:04:23;100831.13;;;-1.88;84.13
59073;BME280;44859;51.934;15.554;2023-01-28T13:06:59;100833.42;;;-1.83;84.20
59073;BME280;44859;51.934;15.554;2023-01-28T13:09:32;100834.73;;;-1.78;84.04
59073;BME280;44859;51.934;15.554;2023-01-28T13:12:04;100834.12;;;-1.74;84.11
59073;BME280;44859;51.934;15.554;2023-01-28T13:14:33;100835.20;;;-1.71;84.14
59073;BME280;44859;51.934;15.554;2023-01-28T13:17:12;100838.54;;;-1.68;83.79
59073;BME280;44859;51.934;15.554;2023-01-28T13:19:50;100842.73;;;-1.64;83.92
59073;BME280;44859;51.934;15.554;2023-01-28T13:22:36;100841.20;;;-1.63;83.49
59073;BME280;44859;51.934;15.554;2023-01-28T13:25:34;100843.59;;;-1.65;83.62
59073;BME280;44859;51.934;15.554;2023-01-28T13:28:05;100852.36;;;-1.66;83.78
59073;BME280;44859;51.934;15.554;2023-01-28T13:30:46;100852.91;;;-1.63;83.75
59073;BME280;44859;51.934;15.554;2023-01-28T13:33:35;100851.77;;;-1.70;82.99
59073;BME280;44859;51.934;15.554;2023-01-28T13:39:17;100844.63;;;-1.74;83.30
59073;BME280;44859;51.934;15.554;2023-01-28T13:42:23;100842.96;;;-1.71;83.17
59073;BME280;44859;51.934;15.554;2023-01-28T13:44:52;100850.30;;;-1.65;83.19
59073;BME280;44859;51.934;15.554;2023-01-28T13:47:44;100848.96;;;-1.63;83.09
59073;BME280;44859;51.934;15.554;2023-01-28T13:50:22;100844.81;;;-1.64;82.95
59073;BME280;44859;51.934;15.554;2023-01-28T13:53:02;100846.05;;;-1.61;82.53
59073;BME280;44859;51.934;15.554;2023-01-28T13:55:38;100846.77;;;-1.60;82.67
59073;BME280;44859;51.934;15.554;2023-01-28T13:58:39;100848.70;;;-1.60;82.51
59073;BME280;44859;51.934;15.554;2023-01-28T14:04:29;100848.91;;;-1.55;83.04
59073;BME280;44859;51.934;15.554;2023-01-28T14:18:38;100859.72;;;-1.69;82.74
59073;BME280;44859;51.934;15.554;2023-01-28T14:21:13;100860.77;;;-1.67;82.62
59073;BME280;44859;51.934;15.554;2023-01-28T14:23:46;100857.02;;;-1.65;82.82
59073;BME280;44859;51.934;15.554;2023-01-28T14:32:25;100864.39;;;-1.77;82.76
59073;BME280;44859;51.934;15.554;2023-01-28T14:35:04;100863.79;;;-1.80;83.24
59073;BME280;44859;51.934;15.554;2023-01-28T14:37:33;100858.05;;;-1.83;83.29
59073;BME280;44859;51.934;15.554;2023-01-28T14:40:06;100857.87;;;-1.85;83.65
59073;BME280;44859;51.934;15.554;2023-01-28T14:42:39;100859.17;;;-1.89;84.00
59073;BME280;44859;51.934;15.554;2023-01-28T14:48:18;100859.98;;;-1.91;84.05
59073;BME280;44859;51.934;15.554;2023-01-28T14:59:35;100846.09;;;-1.97;84.51
59073;BME280;44859;51.934;15.554;2023-01-28T15:02:18;100848.67;;;-1.97;84.34
59073;BME280;44859;51.934;15.554;2023-01-28T15:04:49;100850.30;;;-1.93;84.71
59073;BME280;44859;51.934;15.554;2023-01-28T15:07:21;100847.77;;;-1.90;84.86
59073;BME280;44859;51.934;15.554;2023-01-28T15:12:38;100837.58;;;-1.92;84.92
59073;BME280;44859;51.934;15.554;2023-01-28T15:17:45;100833.78;;;-1.93;84.91
59073;BME280;44859;51.934;15.554;2023-01-28T15:20:20;100837.91;;;-1.93;85.10
59073;BME280;44859;51.934;15.554;2023-01-28T15:22:52;100837.89;;;-1.94;85.33
59073;BME280;44859;51.934;15.554;2023-01-28T15:25:23;100838.52;;;-1.97;85.56
59073;BME280;44859;51.934;15.554;2023-01-28T15:27:54;100835.74;;;-1.98;85.66
59073;BME280;44859;51.934;15.554;2023-01-28T15:30:28;100832.38;;;-2.03;86.13
59073;BME280;44859;51.934;15.554;2023-01-28T15:32:58;100838.70;;;-2.05;86.38
59073;BME280;44859;51.934;15.554;2023-01-28T15:35:27;100833.69;;;-2.06;86.38
59073;BME280;44859;51.934;15.554;2023-01-28T15:37:58;100840.20;;;-2.08;86.42
59073;BME280;44859;51.934;15.554;2023-01-28T15:40:28;100834.82;;;-2.09;86.82
59073;BME280;44859;51.934;15.554;2023-01-28T15:42:57;100838.73;;;-2.12;87.08